Time;durP1;ratioP1;P1;durP2;ratioP2;P2;SDS_P1;SDS_P2;PMS_P1;PMS_P2;Temp;Humidity;BMP_temperature;BMP_pressure;BME280_temperature;BME280_humidity;BME280_pressure;Samples;Min_cycle;Max_cycle;Signal;HPM_P1;HPM_P2
2023/10/19 00:02:05;;;;;;;;;;;;;;;10.63;71.79;99990.94;6212986;23;20251;-80
2023/10/19 00:04:35;;;;;;;;;;;;;;;10.68;71.33;99989.09;6212769;23;20377;-80
2023/10/19 00:07:00;;;;;;;;;;;;;;;10.71;70.85;99986.44;6212806;23;19908;-81
2023/10/19 00:09:31;;;;;;;;;;;;;;;10.61;70.64;99989.19;6212805;23;20247;-80
2023/10/19 00:11:57;;;;;;;;;;;;;;;10.53;71.37;99979.59;6213130;23;19908;-80
2023/10/19 00:14:25;;;;;;;;;;;;;;;10.47;71.13;99978.78;6213377;23;20311;-80
2023/10/19 00:16:54;;;;;;;;;;;;;;;10.44;71.30;99976.16;6212781;23;20259;-80
2023/10/19 00:19:20;;;;;;;;;;;;;;;10.33;72.10;99977.16;6213000;23;19934;-80
2023/10/19 00:22:01;;;;;;;;;;;;;;;10.31;71.95;99972.75;6212854;23;19912;-80
2023/10/19 00:24:27;;;;;;;;;;;;;;;10.30;72.27;99963.09;6212708;23;20255;-80
2023/10/19 00:26:53;;;;;;;;;;;;;;;10.23;72.18;99964.91;6212680;23;19911;-81
2023/10/19 00:30:06;;;;;;;;;;;;;;;9.83;73.97;99960.84;6213208;23;20320;-80
2023/10/19 00:32:06;;;;;;;;;;;;;;;9.79;74.32;99958.25;6196799;23;19935;-80
2023/10/19 00:34:33;;;;;;;;;;;;;;;9.87;74.00;99951.19;6213428;23;19908;-81
2023/10/19 00:37:07;;;;;;;;;;;;;;;9.91;73.93;99949.38;6212908;23;19919;-81
2023/10/19 00:39:42;;;;;;;;;;;;;;;9.93;73.36;99950.22;6212860;23;19908;-82
2023/10/19 00:42:08;;;;;;;;;;;;;;;9.82;72.95;99940.69;6212584;23;19982;-82
2023/10/19 00:44:42;;;;;;;;;;;;;;;9.80;73.16;99941.56;6212602;23;20019;-81
2023/10/19 00:47:13;;;;;;;;;;;;;;;9.65;73.54;99947.81;6185773;23;19912;-80
2023/10/19 00:49:38;;;;;;;;;;;;;;;9.49;74.28;99942.66;6212325;23;20286;-80
2023/10/19 00:52:12;;;;;;;;;;;;;;;9.55;74.17;99940.88;6211811;23;19958;-80
2023/10/19 00:54:51;;;;;;;;;;;;;;;9.72;73.80;99933.72;6212719;23;20238;-81
2023/10/19 00:57:20;;;;;;;;;;;;;;;9.73;73.60;99929.31;6212951;23;19986;-81
2023/10/19 00:59:52;;;;;;;;;;;;;;;9.74;73.74;99931.94;6213059;23;19908;-81
2023/10/19 01:04:50;;;;;;;;;;;;;;;9.86;73.39;99936.25;6213052;23;20252;-80
2023/10/19 01:07:38;;;;;;;;;;;;;;;9.82;73.48;99934.50;6212677;23;19914;-82
2023/10/19 01:10:05;;;;;;;;;;;;;;;9.81;73.48;99920.47;6211911;23;19908;-81
2023/10/19 01:15:07;;;;;;;;;;;;;;;9.85;73.11;99918.69;6213161;23;19908;-80
2023/10/19 01:17:38;;;;;;;;;;;;;;;9.63;73.30;99917.97;6212486;23;19915;-80
2023/10/19 01:20:20;;;;;;;;;;;;;;;9.59;73.15;99910.97;6213127;23;19908;-81
2023/10/19 01:23:09;;;;;;;;;;;;;;;9.54;73.06;99900.47;6212617;23;19908;-80
2023/10/19 01:25:40;;;;;;;;;;;;;;;9.63;72.11;99912.72;6212522;23;19947;-81
2023/10/19 01:28:10;;;;;;;;;;;;;;;9.47;72.76;99918.09;6212988;23;19908;-82
2023/10/19 01:30:38;;;;;;;;;;;;;;;9.24;72.99;99912.13;6214570;23;20350;-81
2023/10/19 01:33:04;;;;;;;;;;;;;;;9.12;73.79;99903.38;6214398;23;19951;-81
2023/10/19 01:36:10;;;;;;;;;;;;;;;8.99;75.29;99887.66;6214649;23;19908;-83
2023/10/19 01:38:15;;;;;;;;;;;;;;;8.98;75.66;99907.00;6213720;23;19926;-80
2023/10/19 01:40:46;;;;;;;;;;;;;;;9.10;75.76;99914.81;6214754;23;19908;-83
2023/10/19 01:43:19;;;;;;;;;;;;;;;9.21;75.49;99910.38;6214802;23;19930;-81
2023/10/19 01:45:45;;;;;;;;;;;;;;;9.30;74.94;99906.81;6213808;23;19915;-81
2023/10/19 01:48:12;;;;;;;;;;;;;;;9.38;74.72;99912.88;6214333;23;19911;-81
2023/10/19 01:50:39;;;;;;;;;;;;;;;9.40;74.94;99912.88;6214394;23;19907;-80
2023/10/19 01:53:12;;;;;;;;;;;;;;;9.42;74.40;99909.38;6214520;23;20116;-81
2023/10/19 01:55:38;;;;;;;;;;;;;;;9.42;75.07;99911.09;6214466;23;19914;-80
2023/10/19 01:58:03;;;;;;;;;;;;;;;9.45;74.56;99909.34;6214812;23;19935;-81
2023/10/19 02:00:29;;;;;;;;;;;;;;;9.63;73.95;99907.44;6213012;23;19990;-80
2023/10/19 02:02:55;;;;;;;;;;;;;;;9.55;74.00;99904.00;6213729;23;19915;-80
2023/10/19 02:05:22;;;;;;;;;;;;;;;9.55;74.17;99901.38;6212584;23;20290;-80
2023/10/19 02:07:47;;;;;;;;;;;;;;;9.49;74.14;99912.81;6213956;23;19911;-81
2023/10/19 02:10:12;;;;;;;;;;;;;;;9.45;74.47;99917.25;6214036;23;20252;-79
2023/10/19 02:12:41;;;;;;;;;;;;;;;9.42;74.44;99914.63;6213984;23;19907;-80
2023/10/19 02:15:08;;;;;;;;;;;;;;;9.42;73.49;99908.47;6214861;23;20291;-79
2023/10/19 02:17:33;;;;;;;;;;;;;;;9.14;73.83;99914.81;6214427;23;19942;-81
2023/10/19 02:19:59;;;;;;;;;;;;;;;9.16;74.25;99917.44;6214426;23;19908;-80
2023/10/19 02:22:24;;;;;;;;;;;;;;;9.18;73.97;99914.78;6211846;23;19939;-81
2023/10/19 02:24:52;;;;;;;;;;;;;;;9.13;74.29;99907.78;6214123;23;20397;-81
2023/10/19 02:27:17;;;;;;;;;;;;;;;9.11;75.32;99909.56;6213721;23;19912;-80
2023/10/19 02:29:43;;;;;;;;;;;;;;;9.14;75.02;99912.16;6214015;23;19914;-80
2023/10/19 02:32:09;;;;;;;;;;;;;;;9.31;74.72;99916.44;6214392;23;20323;-81
2023/10/19 02:34:35;;;;;;;;;;;;;;;9.19;75.59;99914.78;6213587;23;20311;-80
2023/10/19 02:37:01;;;;;;;;;;;;;;;9.36;75.39;99917.31;6214068;23;20010;-79
2023/10/19 02:39:29;;;;;;;;;;;;;;;9.34;76.03;99916.41;6213386;23;20244;-80
2023/10/19 02:41:54;;;;;;;;;;;;;;;9.31;76.53;99911.16;6213998;23;19907;-79
2023/10/19 02:44:25;;;;;;;;;;;;;;;9.51;75.42;99913.66;6214159;23;19974;-79
2023/10/19 02:46:58;;;;;;;;;;;;;;;9.56;75.51;99909.25;6201841;23;20319;-80
2023/10/19 02:49:25;;;;;;;;;;;;;;;9.60;75.26;99912.75;6213368;23;19919;-79
2023/10/19 02:51:52;;;;;;;;;;;;;;;9.61;75.57;99920.63;6213737;23;19908;-80
2023/10/19 02:54:22;;;;;;;;;;;;;;;9.57;76.34;99908.34;6213467;23;19911;-79
2023/10/19 02:56:52;;;;;;;;;;;;;;;9.52;76.62;99920.69;6213807;23;19908;-79
2023/10/19 02:59:24;;;;;;;;;;;;;;;9.54;76.44;99915.41;6212862;23;20058;-80
2023/10/19 03:01:50;;;;;;;;;;;;;;;9.62;76.81;99921.50;6201232;23;19908;-81
2023/10/19 03:04:16;;;;;;;;;;;;;;;9.60;76.72;99918.88;6213661;23;19925;-79
2023/10/19 03:06:41;;;;;;;;;;;;;;;9.62;76.40;99922.38;6213737;23;19983;-80
2023/10/19 03:09:13;;;;;;;;;;;;;;;9.60;76.52;99915.38;6213460;23;19908;-79
2023/10/19 03:11:42;;;;;;;;;;;;;;;9.63;76.92;99925.88;6213397;23;19907;-81
2023/10/19 03:14:11;;;;;;;;;;;;;;;9.42;73.40;99926.91;6213878;23;20228;-80
2023/10/19 03:16:37;;;;;;;;;;;;;;;9.14;73.91;99919.16;6213961;23;19908;-79
2023/10/19 03:19:04;;;;;;;;;;;;;;;9.07;73.65;99926.22;6214025;23;19908;-81
2023/10/19 03:21:33;;;;;;;;;;;;;;;9.11;74.30;99927.97;6214025;23;19916;-80
2023/10/19 03:24:01;;;;;;;;;;;;;;;9.17;73.40;99931.44;6212685;23;20006;-79
2023/10/19 03:26:36;;;;;;;;;;;;;;;9.06;74.05;99934.13;6213291;23;19912;-80
2023/10/19 03:29:07;;;;;;;;;;;;;;;9.04;73.92;99934.13;6213780;23;19942;-80
2023/10/19 03:31:32;;;;;;;;;;;;;;;9.08;73.32;99935.00;6213717;23;20275;-79
2023/10/19 03:33:59;;;;;;;;;;;;;;;8.90;74.06;99935.97;6213673;23;19914;-80
2023/10/19 03:36:25;;;;;;;;;;;;;;;9.05;74.48;99930.63;6213150;23;19914;-81
2023/10/19 03:38:52;;;;;;;;;;;;;;;9.36;73.51;99932.19;6213260;23;19966;-82
2023/10/19 03:41:21;;;;;;;;;;;;;;;9.32;73.85;99934.00;6186748;23;20339;-81
2023/10/19 03:43:51;;;;;;;;;;;;;;;9.39;73.96;99930.44;6213487;23;19903;-83
2023/10/19 03:46:24;;;;;;;;;;;;;;;9.38;73.72;99928.69;6212917;23;20303;-83
2023/10/19 03:48:49;;;;;;;;;;;;;;;9.46;74.61;99924.22;6213297;23;19914;-82
2023/10/19 03:51:15;;;;;;;;;;;;;;;9.48;74.70;99926.84;6212451;23;19912;-80
2023/10/19 03:53:46;;;;;;;;;;;;;;;9.51;75.18;99918.94;6212954;23;20023;-81
2023/10/19 03:56:12;;;;;;;;;;;;;;;9.63;75.11;99926.75;6212949;23;20680;-83
2023/10/19 03:58:39;;;;;;;;;;;;;;;9.64;75.84;99922.38;6213325;23;19908;-82
2023/10/19 04:01:05;;;;;;;;;;;;;;;9.70;75.72;99922.31;6212585;23;20335;-83
2023/10/19 04:03:31;;;;;;;;;;;;;;;9.65;76.65;99922.38;6212706;23;19908;-83
2023/10/19 04:05:56;;;;;;;;;;;;;;;9.85;76.68;99919.56;6212958;23;19923;-83
2023/10/19 04:08:26;;;;;;;;;;;;;;;10.02;76.33;99907.97;6212739;23;19908;-82
2023/10/19 04:11:32;;;;;;;;;;;;;;;10.06;76.71;99919.41;6213092;23;19908;-82
2023/10/19 04:13:42;;;;;;;;;;;;;;;10.03;77.28;99912.38;6210746;23;19986;-82
2023/10/19 04:16:09;;;;;;;;;;;;;;;10.02;78.09;99918.53;6213380;23;20287;-82
2023/10/19 04:18:38;;;;;;;;;;;;;;;10.14;77.86;99912.28;6212870;23;19986;-80
2023/10/19 04:21:03;;;;;;;;;;;;;;;10.20;78.26;99910.44;6212741;23;20320;-81
2023/10/19 04:23:28;;;;;;;;;;;;;;;10.23;78.61;99906.06;6185473;23;19923;-81
2023/10/19 04:25:56;;;;;;;;;;;;;;;10.33;78.58;99913.00;6212879;23;20053;-81
2023/10/19 04:28:30;;;;;;;;;;;;;;;10.38;78.80;99913.84;6185179;23;19912;-80
2023/10/19 04:30:55;;;;;;;;;;;;;;;10.39;78.92;99910.28;6201854;23;19908;-80
2023/10/19 04:33:22;;;;;;;;;;;;;;;10.36;79.04;99905.94;6212909;23;19986;-81
2023/10/19 04:35:55;;;;;;;;;;;;;;;10.45;79.12;99914.63;6212861;23;19920;-81
2023/10/19 04:38:20;;;;;;;;;;;;;;;10.54;79.22;99909.25;6212764;23;19912;-81
2023/10/19 04:40:46;;;;;;;;;;;;;;;10.64;79.09;99899.47;6212913;23;20002;-82
2023/10/19 04:43:11;;;;;;;;;;;;;;;10.74;78.87;99906.38;6212510;23;19907;-82
2023/10/19 04:45:39;;;;;;;;;;;;;;;10.69;79.30;99905.53;6213012;23;20316;-81
2023/10/19 04:48:05;;;;;;;;;;;;;;;10.70;79.21;99909.94;6212130;23;19939;-79
2023/10/19 04:50:30;;;;;;;;;;;;;;;10.72;79.82;99913.41;6212819;23;20263;-80
2023/10/19 04:52:56;;;;;;;;;;;;;;;10.73;79.84;99905.47;6212666;23;19983;-80
2023/10/19 04:55:21;;;;;;;;;;;;;;;10.77;80.00;99916.91;6212516;23;19914;-81
2023/10/19 04:57:46;;;;;;;;;;;;;;;10.76;79.69;99917.78;6213104;23;19915;-84
2023/10/19 05:00:13;;;;;;;;;;;;;;;10.87;79.34;99917.66;6212563;23;19908;-81
2023/10/19 05:02:38;;;;;;;;;;;;;;;10.80;79.18;99919.50;6212419;23;20294;-82
2023/10/19 05:05:04;;;;;;;;;;;;;;;10.68;80.28;99919.66;6213915;23;19908;-83
2023/10/19 05:07:29;;;;;;;;;;;;;;;10.82;80.10;99928.25;6214146;23;20254;-84
2023/10/19 05:09:54;;;;;;;;;;;;;;;10.93;79.86;99930.75;6214053;23;19911;-84
2023/10/19 05:12:21;;;;;;;;;;;;;;;11.07;79.08;99925.31;6213640;23;20230;-80
2023/10/19 05:14:46;;;;;;;;;;;;;;;10.97;78.89;99924.56;6214208;23;19947;-81
2023/10/19 05:17:12;;;;;;;;;;;;;;;10.99;79.90;99921.91;6214140;23;19914;-81
2023/10/19 05:19:38;;;;;;;;;;;;;;;11.05;79.12;99925.31;6213532;23;20251;-83
2023/10/19 05:22:06;;;;;;;;;;;;;;;11.02;79.56;99932.41;6214332;23;19966;-82
2023/10/19 05:24:32;;;;;;;;;;;;;;;11.26;79.93;99928.56;6213592;23;20026;-82
2023/10/19 05:26:57;;;;;;;;;;;;;;;11.69;78.12;99935.84;6213513;23;19939;-83
2023/10/19 05:29:25;;;;;;;;;;;;;;;11.53;77.60;99937.00;6214581;23;20232;-83
2023/10/19 05:31:53;;;;;;;;;;;;;;;11.54;77.58;99931.69;6213539;23;19908;-83
2023/10/19 05:34:21;;;;;;;;;;;;;;;11.75;77.44;99933.09;6213606;23;19914;-82
2023/10/19 05:36:51;;;;;;;;;;;;;;;11.92;76.25;99943.44;6213376;23;19982;-82
2023/10/19 05:39:17;;;;;;;;;;;;;;;12.04;75.97;99938.84;6213995;23;19912;-81
2023/10/19 05:41:42;;;;;;;;;;;;;;;12.01;75.07;99908.03;6213183;23;19962;-82
2023/10/19 05:44:08;;;;;;;;;;;;;;;12.22;75.16;99938.53;6213558;23;19939;-81
2023/10/19 05:46:33;;;;;;;;;;;;;;;12.03;74.19;99947.69;6210361;23;19911;-81
2023/10/19 05:48:59;;;;;;;;;;;;;;;12.01;75.02;99939.78;6211532;23;19919;-82
2023/10/19 05:51:24;;;;;;;;;;;;;;;12.25;74.48;99934.94;6212138;23;20312;-80
2023/10/19 05:53:50;;;;;;;;;;;;;;;12.44;74.30;99939.00;6212731;23;20062;-80
2023/10/19 05:56:16;;;;;;;;;;;;;;;12.67;72.90;99935.91;6213195;23;19908;-83
2023/10/19 05:58:48;;;;;;;;;;;;;;;12.66;72.71;99934.16;6212532;23;19908;-85
2023/10/19 06:01:13;;;;;;;;;;;;;;;12.43;73.00;99936.38;6213268;23;19907;-83
2023/10/19 06:03:39;;;;;;;;;;;;;;;12.35;72.87;99937.41;6211854;23;19915;-81
2023/10/19 06:06:04;;;;;;;;;;;;;;;12.44;72.38;99936.38;6210734;23;20331;-80
2023/10/19 06:08:31;;;;;;;;;;;;;;;12.61;72.49;99943.13;6210051;23;19908;-80
2023/10/19 06:10:56;;;;;;;;;;;;;;;12.73;71.65;99937.59;6210113;23;19912;-82
2023/10/19 06:13:21;;;;;;;;;;;;;;;12.73;71.00;99937.59;6209581;23;19918;-81
2023/10/19 06:15:50;;;;;;;;;;;;;;;12.84;71.27;99938.22;6209638;23;19908;-81
2023/10/19 06:18:15;;;;;;;;;;;;;;;13.01;71.07;99937.00;6210434;23;19999;-82
2023/10/19 06:20:44;;;;;;;;;;;;;;;13.15;70.30;99939.38;6210905;23;19943;-81
2023/10/19 06:23:11;;;;;;;;;;;;;;;13.14;70.47;99935.81;6209838;23;19908;-81
2023/10/19 06:25:37;;;;;;;;;;;;;;;13.58;70.21;99926.03;6209985;23;20383;-82
2023/10/19 06:28:05;;;;;;;;;;;;;;;13.46;67.77;99938.72;6208521;23;19911;-81
2023/10/19 06:30:31;;;;;;;;;;;;;;;13.50;68.70;99935.97;6212343;23;19946;-80
2023/10/19 06:33:00;;;;;;;;;;;;;;;13.42;69.73;99938.78;6212644;23;19958;-80
2023/10/19 06:35:26;;;;;;;;;;;;;;;13.26;68.48;99940.00;6210767;23;19958;-79
2023/10/19 06:37:53;;;;;;;;;;;;;;;13.46;68.13;99936.06;6211098;23;19912;-80
2023/10/19 06:40:18;;;;;;;;;;;;;;;13.38;68.34;99944.19;6213060;23;19908;-82
2023/10/19 06:42:47;;;;;;;;;;;;;;;13.08;69.19;99939.50;6186941;23;20284;-81
2023/10/19 06:45:15;;;;;;;;;;;;;;;13.42;68.59;99946.75;6213759;23;19970;-81
2023/10/19 06:47:45;;;;;;;;;;;;;;;13.80;67.82;99938.78;6213540;23;19915;-80
2023/10/19 06:50:11;;;;;;;;;;;;;;;13.85;66.55;99941.31;6211381;23;19908;-80
2023/10/19 06:52:39;;;;;;;;;;;;;;;14.20;66.59;99939.56;6213281;23;19964;-80
2023/10/19 06:55:05;;;;;;;;;;;;;;;14.24;67.04;99939.44;6211119;23;19915;-84
2023/10/19 06:57:32;;;;;;;;;;;;;;;14.36;66.84;99940.88;6213359;23;19915;-81
2023/10/19 06:59:58;;;;;;;;;;;;;;;14.31;66.12;99934.84;6213300;23;19985;-82
2023/10/19 07:02:23;;;;;;;;;;;;;;;14.54;65.84;99933.38;6210220;23;19938;-83
2023/10/19 07:04:49;;;;;;;;;;;;;;;14.65;65.21;99936.63;6212263;23;19911;-83
2023/10/19 07:07:14;;;;;;;;;;;;;;;14.75;65.50;99937.22;6213367;23;19912;-82
2023/10/19 07:09:40;;;;;;;;;;;;;;;14.92;64.48;99945.59;6213003;23;19962;-82
2023/10/19 07:12:07;;;;;;;;;;;;;;;14.62;65.78;99945.53;6212578;23;19908;-80
2023/10/19 07:14:33;;;;;;;;;;;;;;;14.20;67.71;99939.56;6212685;23;19930;-78
2023/10/19 07:16:59;;;;;;;;;;;;;;;14.08;67.14;99954.88;6185827;23;19908;-82
2023/10/19 07:19:26;;;;;;;;;;;;;;;13.94;68.42;99946.41;6211189;23;19912;-82
2023/10/19 07:21:57;;;;;;;;;;;;;;;14.31;68.32;99940.16;6211778;23;19914;-82
2023/10/19 07:24:25;;;;;;;;;;;;;;;14.16;67.65;99944.06;6213079;23;19908;-81
2023/10/19 07:27:01;;;;;;;;;;;;;;;14.14;67.68;99945.91;6208810;23;19908;-84
2023/10/19 07:29:27;;;;;;;;;;;;;;;14.31;68.26;99935.69;6212604;23;19911;-84
2023/10/19 07:31:55;;;;;;;;;;;;;;;14.25;67.69;99940.31;6213018;23;20393;-84
2023/10/19 07:34:25;;;;;;;;;;;;;;;14.27;66.99;99935.81;6212959;23;19908;-84
2023/10/19 07:36:51;;;;;;;;;;;;;;;14.46;67.84;99930.91;6183066;23;19908;-86
2023/10/19 07:39:19;;;;;;;;;;;;;;;14.83;66.75;99932.56;6211216;23;19908;-82
2023/10/19 07:41:44;;;;;;;;;;;;;;;15.17;65.31;99926.28;6209900;23;20370;-83
2023/10/19 07:44:09;;;;;;;;;;;;;;;15.40;64.54;99928.22;6209878;23;20011;-84
2023/10/19 07:46:35;;;;;;;;;;;;;;;15.39;64.06;99924.69;6209911;23;19912;-84
2023/10/19 07:49:03;;;;;;;;;;;;;;;15.76;63.48;99920.84;6209605;23;20307;-86
2023/10/19 07:51:28;;;;;;;;;;;;;;;15.73;64.58;99920.09;6209849;23;19995;-84
2023/10/19 07:53:53;;;;;;;;;;;;;;;15.97;62.29;99923.72;6207362;23;19935;-86
2023/10/19 07:56:19;;;;;;;;;;;;;;;16.31;61.47;99914.59;6181704;23;19986;-86
2023/10/19 07:58:44;;;;;;;;;;;;;;;16.61;60.74;99917.97;6209835;23;20029;-86
2023/10/19 08:01:11;;;;;;;;;;;;;;;16.52;61.53;99920.09;6209689;23;19908;-87
2023/10/19 08:03:36;;;;;;;;;;;;;;;16.62;60.79;99916.16;6208399;23;19907;-86
2023/10/19 08:06:02;;;;;;;;;;;;;;;16.73;60.23;99911.31;6209394;23;19908;-86
2023/10/19 08:08:33;;;;;;;;;;;;;;;16.89;60.00;99908.97;6210095;23;19908;-86
2023/10/19 08:10:59;;;;;;;;;;;;;;;16.80;59.64;99903.97;6209038;23;19908;-86
2023/10/19 08:13:26;;;;;;;;;;;;;;;16.81;58.85;99909.25;6212457;23;19958;-84
2023/10/19 08:15:51;;;;;;;;;;;;;;;16.91;57.39;99904.47;6213347;23;20382;-87
2023/10/19 08:18:17;;;;;;;;;;;;;;;17.28;56.98;99899.50;6212580;23;19908;-88
2023/10/19 08:20:45;;;;;;;;;;;;;;;17.38;55.86;99890.22;6185711;23;19908;-92
2023/10/19 08:23:27;;;;;;;;;;;;;;;17.44;54.96;99892.66;6186518;23;19914;-91
2023/10/19 08:25:55;;;;;;;;;;;;;;;17.36;57.09;99892.06;6186716;23;19911;-91
2023/10/19 08:28:22;;;;;;;;;;;;;;;17.35;56.25;99896.53;6213684;23;19908;-93
2023/10/19 08:30:56;;;;;;;;;;;;;;;16.95;56.61;99894.56;6186151;23;19908;-91
2023/10/19 08:33:38;;;;;;;;;;;;;;;17.26;57.96;99888.06;6212443;23;19934;-92
2023/10/19 08:36:04;;;;;;;;;;;;;;;17.15;57.32;99885.81;6211315;23;19965;-86
2023/10/19 08:38:29;;;;;;;;;;;;;;;17.11;57.20;99886.84;6184206;23;19912;-84
2023/10/19 08:40:55;;;;;;;;;;;;;;;17.22;55.82;99887.28;6210077;23;19991;-82
2023/10/19 08:43:21;;;;;;;;;;;;;;;17.46;56.45;99879.25;6210762;23;19907;-84
2023/10/19 08:45:46;;;;;;;;;;;;;;;17.31;55.87;99875.41;6211149;23;20562;-84
2023/10/19 08:48:12;;;;;;;;;;;;;;;17.19;56.27;99890.06;6211074;23;19915;-81
2023/10/19 08:50:37;;;;;;;;;;;;;;;17.36;55.75;99892.06;6210933;23;20331;-87
2023/10/19 08:53:06;;;;;;;;;;;;;;;17.01;56.69;99881.00;6184474;23;20267;-83
2023/10/19 08:55:34;;;;;;;;;;;;;;;17.26;55.82;99891.56;6210151;23;19912;-85
2023/10/19 08:57:59;;;;;;;;;;;;;;;17.35;56.02;99879.69;6210586;23;19990;-91
2023/10/19 09:00:26;;;;;;;;;;;;;;;17.51;56.01;99874.59;6211293;23;19942;-83
2023/10/19 09:02:52;;;;;;;;;;;;;;;17.16;55.65;99852.88;6211318;23;19915;-82
2023/10/19 09:05:25;;;;;;;;;;;;;;;17.06;56.01;99871.03;6209908;23;19907;-81
2023/10/19 09:07:54;;;;;;;;;;;;;;;17.22;56.28;99868.63;6211134;23;19991;-83
2023/10/19 09:10:21;;;;;;;;;;;;;;;17.26;56.72;99870.25;6211536;23;19908;-82
2023/10/19 09:12:58;;;;;;;;;;;;;;;17.40;56.69;99871.50;6210758;23;19943;-82
2023/10/19 09:15:24;;;;;;;;;;;;;;;17.31;56.10;99867.41;6209325;23;20335;-84
2023/10/19 09:17:52;;;;;;;;;;;;;;;16.97;57.31;99856.25;6210457;23;19938;-81
2023/10/19 09:20:27;;;;;;;;;;;;;;;16.90;58.14;99844.13;6211053;23;19930;-81
2023/10/19 09:22:52;;;;;;;;;;;;;;;17.16;57.93;99829.78;6209759;23;19911;-86
2023/10/19 09:25:18;;;;;;;;;;;;;;;17.30;57.49;99839.88;6208636;23;19908;-82
2023/10/19 09:27:43;;;;;;;;;;;;;;;17.50;56.55;99830.19;6210032;23;20322;-81
2023/10/19 09:30:12;;;;;;;;;;;;;;;17.35;56.93;99832.56;6211146;23;19912;-81
2023/10/19 09:32:39;;;;;;;;;;;;;;;17.60;57.10;99826.22;6209172;23;19904;-85
2023/10/19 09:35:05;;;;;;;;;;;;;;;17.68;57.02;99831.22;6210617;23;19907;-84
2023/10/19 09:37:33;;;;;;;;;;;;;;;17.54;56.96;99829.13;6210359;23;19916;-85
2023/10/19 09:39:58;;;;;;;;;;;;;;;17.49;56.48;99823.13;6210988;23;19908;-88
2023/10/19 09:42:24;;;;;;;;;;;;;;;17.56;56.70;99816.59;6184357;23;19915;-84
2023/10/19 09:44:54;;;;;;;;;;;;;;;17.59;57.10;99808.47;6208472;23;19907;-83
2023/10/19 09:47:26;;;;;;;;;;;;;;;17.75;56.53;99805.13;6207766;23;20002;-84
2023/10/19 09:49:51;;;;;;;;;;;;;;;17.85;56.01;99809.16;6208298;23;19908;-83
2023/10/19 09:52:17;;;;;;;;;;;;;;;18.00;55.28;99799.66;6209963;23;20270;-84
2023/10/19 09:54:52;;;;;;;;;;;;;;;18.25;54.97;99805.63;6182358;23;19912;-82
2023/10/19 09:57:22;;;;;;;;;;;;;;;18.38;53.04;99807.72;6209996;23;19908;-83
2023/10/19 09:59:51;;;;;;;;;;;;;;;18.29;54.75;99800.16;6210540;23;19990;-83
2023/10/19 10:02:18;;;;;;;;;;;;;;;18.23;54.31;99790.63;6209647;23;19908;-83
2023/10/19 10:04:56;;;;;;;;;;;;;;;18.23;54.79;99791.47;6210219;23;19911;-86
2023/10/19 10:07:21;;;;;;;;;;;;;;;18.29;54.75;99787.69;6212146;23;20244;-82
2023/10/19 10:09:48;;;;;;;;;;;;;;;18.31;54.02;99782.28;6212777;23;19915;-82
2023/10/19 10:12:17;;;;;;;;;;;;;;;18.38;53.54;99779.25;6212154;23;19908;-82
2023/10/19 10:14:52;;;;;;;;;;;;;;;18.42;53.52;99767.47;6212167;23;19908;-82
2023/10/19 10:17:18;;;;;;;;;;;;;;;18.61;52.99;99769.28;6212176;23;19907;-83
2023/10/19 10:19:44;;;;;;;;;;;;;;;18.65;52.09;99764.69;6211143;23;20232;-83
2023/10/19 10:22:14;;;;;;;;;;;;;;;18.65;52.83;99756.66;6212108;23;19908;-83
2023/10/19 10:24:43;;;;;;;;;;;;;;;18.61;53.00;99753.25;6212074;23;20332;-84
2023/10/19 10:27:09;;;;;;;;;;;;;;;18.78;52.19;99757.78;6212050;23;19908;-85
2023/10/19 10:29:35;;;;;;;;;;;;;;;18.59;51.10;99752.47;6212410;23;19911;-85
2023/10/19 10:32:01;;;;;;;;;;;;;;;18.21;51.47;99757.78;6212154;23;19958;-85
2023/10/19 10:34:42;;;;;;;;;;;;;;;18.51;51.24;99760.84;6185533;23;20275;-86
2023/10/19 10:37:08;;;;;;;;;;;;;;;18.62;52.03;99755.00;6212222;23;20224;-86
2023/10/19 10:39:37;;;;;;;;;;;;;;;18.75;50.08;99747.25;6185869;23;19907;-85
2023/10/19 10:42:04;;;;;;;;;;;;;;;18.73;50.36;99749.13;6212689;23;19908;-85
2023/10/19 10:44:46;;;;;;;;;;;;;;;18.94;50.61;99749.97;6212684;23;19912;-89
2023/10/19 10:47:16;;;;;;;;;;;;;;;19.10;49.56;99740.22;6185786;23;19908;-85
2023/10/19 10:49:53;;;;;;;;;;;;;;;19.11;50.57;99739.28;6211093;23;19908;-86
2023/10/19 10:52:31;;;;;;;;;;;;;;;19.20;50.14;99740.66;6213074;23;19904;-88
2023/10/19 10:54:57;;;;;;;;;;;;;;;19.02;49.41;99733.53;6212129;23;19907;-87
2023/10/19 10:57:24;;;;;;;;;;;;;;;19.10;49.35;99724.19;6212992;23;19939;-85
2023/10/19 11:00:26;;;;;;;;;;;;;;;19.27;48.88;99720.66;6212211;23;19998;-86
2023/10/19 11:03:07;;;;;;;;;;;;;;;19.32;48.30;99710.63;6090883;23;20457;-87
2023/10/19 11:05:37;;;;;;;;;;;;;;;19.36;48.55;99707.78;6091100;23;20352;-87
2023/10/19 11:08:02;;;;;;;;;;;;;;;19.34;49.50;99707.88;6089590;23;19910;-84
2023/10/19 11:10:42;;;;;;;;;;;;;;;19.64;48.53;99700.03;6090340;23;19909;-86
2023/10/19 11:13:35;;;;;;;;;;;;;;;;;;;;;
2023/10/19 11:16:05;;;;;;;;;;;;;;;19.74;48.39;99696.88;6089730;23;19991;-87
2023/10/19 11:18:42;;;;;;;;;;;;;;;19.97;48.50;99691.22;6065903;23;20301;-87
2023/10/19 11:21:18;;;;;;;;;;;;;;;19.96;48.84;99678.78;6089288;23;20282;-84
2023/10/19 11:23:46;;;;;;;;;;;;;;;19.81;48.03;99675.09;6090285;23;20000;-84
2023/10/19 11:26:13;;;;;;;;;;;;;;;19.85;47.25;99676.66;6089434;23;19924;-85
2023/10/19 11:28:43;;;;;;;;;;;;;;;19.56;48.18;99670.16;6090449;23;19909;-87
2023/10/19 11:34:22;;;;;;;;;;;;;;;19.47;48.13;99660.78;6056644;23;19910;-85
2023/10/19 11:36:52;;;;;;;;;;;;;;;19.53;48.21;99664.13;6075708;23;19910;-84
2023/10/19 11:39:17;;;;;;;;;;;;;;;19.37;48.79;99664.03;6090667;23;19910;-84
2023/10/19 11:41:42;;;;;;;;;;;;;;;19.41;48.51;99657.59;6090808;23;19963;-85
2023/10/19 11:44:10;;;;;;;;;;;;;;;19.49;48.09;99648.22;6090559;23;19916;-81
2023/10/19 11:46:36;;;;;;;;;;;;;;;19.49;48.06;99653.56;6090083;23;19992;-81
2023/10/19 11:49:03;;;;;;;;;;;;;;;19.56;47.74;99645.22;6090737;23;19910;-82
2023/10/19 11:51:31;;;;;;;;;;;;;;;19.45;48.02;99635.94;6090417;23;19913;-82
2023/10/19 11:53:56;;;;;;;;;;;;;;;19.72;47.25;99627.38;6089349;23;19909;-83
2023/10/19 11:56:22;;;;;;;;;;;;;;;19.82;47.86;99622.47;6090924;23;20372;-84
2023/10/19 11:58:50;;;;;;;;;;;;;;;19.53;48.05;99622.16;6091115;23;19909;-84
2023/10/19 12:01:18;;;;;;;;;;;;;;;19.48;48.02;99613.53;6090435;23;20261;-84
2023/10/19 12:03:45;;;;;;;;;;;;;;;19.65;48.13;99610.81;6090824;23;19913;-85
2023/10/19 12:06:12;;;;;;;;;;;;;;;19.74;48.02;99603.22;6090125;23;19909;-86
2023/10/19 12:08:38;;;;;;;;;;;;;;;19.62;48.06;99610.97;6066736;23;19916;-84
2023/10/19 12:11:15;;;;;;;;;;;;;;;19.75;47.81;99611.16;6149538;23;19907;-87
2023/10/19 12:13:43;;;;;;;;;;;;;;;19.83;47.69;99613.47;6212019;23;19943;-86
2023/10/19 12:16:11;;;;;;;;;;;;;;;19.93;47.14;99608.47;6211957;23;19907;-85
2023/10/19 12:18:36;;;;;;;;;;;;;;;19.98;47.50;99603.72;6211248;23;19908;-85
2023/10/19 12:21:02;;;;;;;;;;;;;;;19.98;48.35;99595.69;6211709;23;19983;-83
2023/10/19 12:23:28;;;;;;;;;;;;;;;20.08;47.68;99596.94;6184689;23;19995;-87
2023/10/19 12:25:55;;;;;;;;;;;;;;;19.68;47.81;99594.59;6211650;23;19908;-85
2023/10/19 12:28:20;;;;;;;;;;;;;;;19.54;48.61;99585.56;6211694;23;19926;-84
2023/10/19 12:30:46;;;;;;;;;;;;;;;19.55;48.47;99588.16;6211963;23;19914;-85
2023/10/19 12:33:12;;;;;;;;;;;;;;;19.71;48.41;99576.63;6211624;23;20242;-87
2023/10/19 12:38:16;;;;;;;;;;;;;;;19.46;48.89;99586.88;6211385;23;20352;-85
2023/10/19 12:40:46;;;;;;;;;;;;;;;19.60;48.38;99575.41;6211624;23;19909;-85
2023/10/19 12:43:12;;;;;;;;;;;;;;;19.80;48.26;99571.69;6211324;23;19939;-86
2023/10/19 12:45:41;;;;;;;;;;;;;;;19.96;47.91;99562.81;6211888;23;19914;-87
2023/10/19 12:48:07;;;;;;;;;;;;;;;19.92;48.13;99559.41;6211407;23;19914;-87
2023/10/19 12:50:36;;;;;;;;;;;;;;;20.13;47.95;99551.16;6185310;23;20255;-85
2023/10/19 12:53:06;;;;;;;;;;;;;;;20.08;47.51;99547.84;6211360;23;19915;-82
2023/10/19 12:55:37;;;;;;;;;;;;;;;20.02;48.09;99541.03;6211912;23;19915;-87
2023/10/19 12:58:09;;;;;;;;;;;;;;;20.08;47.22;99545.16;6210882;23;19943;-86
2023/10/19 13:00:40;;;;;;;;;;;;;;;20.11;46.96;99535.16;6211403;23;19912;-85
2023/10/19 13:03:25;;;;;;;;;;;;;;;20.21;47.10;99528.31;6184396;23;19908;-87
2023/10/19 13:05:53;;;;;;;;;;;;;;;19.91;47.77;99522.91;6199621;23;20232;-86
2023/10/19 13:08:18;;;;;;;;;;;;;;;19.84;48.10;99511.66;6211480;23;19908;-87